Time;durP1;ratioP1;P1;durP2;ratioP2;P2;SDS_P1;SDS_P2;PMS_P1;PMS_P2;Temp;Humidity;BMP_temperature;BMP_pressure;BME280_temperature;BME280_humidity;BME280_pressure;Samples;Min_cycle;Max_cycle;Signal;HPM_P1;HPM_P2
2022/05/07 00:00:47;;;;;;;8.33;7.53;;;13.90;99.90;;;;;;5124577;27;20236;-64
2022/05/07 00:03:16;;;;;;;8.00;7.17;;;13.80;99.90;;;;;;5124298;27;20240;-63
2022/05/07 00:05:45;;;;;;;8.27;7.57;;;13.80;99.90;;;;;;5124620;27;20237;-63
2022/05/07 00:08:13;;;;;;;7.50;6.80;;;13.70;99.90;;;;;;5125031;27;20241;-62
2022/05/07 00:10:42;;;;;;;7.43;6.63;;;13.70;99.90;;;;;;5125156;27;20237;-63
2022/05/07 00:13:10;;;;;;;8.03;7.27;;;13.60;99.90;;;;;;5123939;27;20241;-63
2022/05/07 00:15:38;;;;;;;8.30;7.50;;;13.60;99.90;;;;;;5124694;27;21168;-63
2022/05/07 00:18:06;;;;;;;11.03;8.23;;;13.60;99.90;;;;;;5124835;27;20237;-62
2022/05/07 00:20:37;;;;;;;8.03;7.23;;;13.60;99.90;;;;;;5124466;27;20244;-62
2022/05/07 00:23:06;;;;;;;8.70;7.87;;;13.60;99.90;;;;;;5123732;27;20703;-62
2022/05/07 00:25:34;;;;;;;8.27;7.50;;;13.50;99.90;;;;;;5124764;27;20268;-62
2022/05/07 00:28:02;;;;;;;9.20;8.00;;;13.60;99.90;;;;;;5124958;27;20228;-63
2022/05/07 00:30:30;;;;;;;10.27;9.13;;;13.50;99.90;;;;;;5108110;27;20240;-62
2022/05/07 00:32:58;;;;;;;12.37;10.43;;;13.50;99.90;;;;;;5123480;27;20245;-63
2022/05/07 00:35:26;;;;;;;10.00;9.00;;;13.40;99.90;;;;;;5124119;27;20735;-62
2022/05/07 00:37:56;;;;;;;9.33;8.43;;;13.30;99.90;;;;;;5113829;27;20237;-63
2022/05/07 00:40:24;;;;;;;11.70;9.70;;;13.30;99.90;;;;;;5105448;27;20232;-62
2022/05/07 00:42:52;;;;;;;9.90;8.90;;;13.30;99.90;;;;;;5106181;27;20589;-62
2022/05/07 00:45:20;;;;;;;10.40;9.30;;;13.30;99.90;;;;;;5123409;27;20241;-63
2022/05/07 00:47:50;;;;;;;9.57;8.67;;;13.30;99.90;;;;;;5124088;27;20240;-63
2022/05/07 00:53:01;;;;;;;10.90;9.70;;;13.30;99.90;;;;;;5081988;27;20242;-62
2022/05/07 00:55:31;;;;;;;10.70;9.60;;;13.20;99.90;;;;;;5108067;27;20266;-63
2022/05/07 00:57:59;;;;;;;10.43;9.33;;;13.10;99.90;;;;;;5106602;27;20242;-62
2022/05/07 01:00:27;;;;;;;9.63;8.60;;;13.00;99.90;;;;;;5109752;27;20248;-62
2022/05/07 01:03:01;;;;;;;10.40;9.30;;;12.90;99.90;;;;;;5108352;27;20328;-63
2022/05/07 01:05:30;;;;;;;9.27;8.37;;;12.90;99.90;;;;;;5125474;27;20237;-62
2022/05/07 01:08:01;;;;;;;10.43;9.33;;;12.90;99.90;;;;;;5110277;27;20240;-62
2022/05/07 01:10:31;;;;;;;11.17;9.67;;;12.90;99.90;;;;;;5124457;27;20229;-62
2022/05/07 01:13:00;;;;;;;10.90;9.10;;;12.80;99.90;;;;;;5107689;27;20233;-62
2022/05/07 01:15:29;;;;;;;11.57;10.40;;;12.80;99.90;;;;;;5125062;27;20270;-62
2022/05/07 01:17:57;;;;;;;12.03;10.83;;;12.70;99.90;;;;;;5106864;27;20248;-63
2022/05/07 01:20:26;;;;;;;12.37;10.77;;;12.70;99.90;;;;;;5106201;27;20244;-62
2022/05/07 01:22:55;;;;;;;12.30;11.00;;;12.70;99.90;;;;;;5121757;27;20637;-62
2022/05/07 01:25:26;;;;;;;11.67;10.57;;;12.70;99.90;;;;;;5104731;27;20240;-63
2022/05/07 01:27:56;;;;;;;11.00;9.63;;;12.70;99.90;;;;;;5104856;27;20719;-63
2022/05/07 01:30:25;;;;;;;11.70;10.47;;;12.70;99.90;;;;;;5121524;27;20241;-62
2022/05/07 01:32:53;;;;;;;11.50;10.17;;;12.80;99.90;;;;;;5104620;27;20236;-62
2022/05/07 01:35:22;;;;;;;12.03;10.33;;;12.80;99.90;;;;;;5122775;27;20229;-62
2022/05/07 01:37:54;;;;;;;11.73;10.43;;;12.80;99.90;;;;;;5105942;27;20237;-63
2022/05/07 01:40:25;;;;;;;11.87;10.57;;;12.80;99.90;;;;;;5122041;27;20241;-63
2022/05/07 01:42:54;;;;;;;10.63;9.53;;;12.80;99.90;;;;;;5105149;27;20323;-62
2022/05/07 01:45:24;;;;;;;10.90;9.80;;;12.70;99.90;;;;;;5107066;27;20232;-62
2022/05/07 01:48:11;;;;;;;10.57;9.47;;;12.70;99.90;;;;;;5123527;27;20252;-63
2022/05/07 01:50:53;;;;;;;10.40;9.40;;;12.70;99.90;;;;;;5106465;27;20240;-62
2022/05/07 01:53:28;;;;;;;11.60;10.33;;;12.60;99.90;;;;;;5122712;27;20240;-62
2022/05/07 01:55:57;;;;;;;12.47;10.30;;;12.60;99.90;;;;;;5105192;27;20237;-63
2022/05/07 01:58:36;;;;;;;10.37;9.27;;;12.60;99.90;;;;;;5106454;27;20279;-63
2022/05/07 02:01:10;;;;;;;10.77;9.53;;;12.60;99.90;;;;;;5123867;27;20248;-63
2022/05/07 02:03:38;;;;;;;10.23;9.23;;;12.70;99.90;;;;;;5107524;27;20324;-62
2022/05/07 02:06:08;;;;;;;11.80;9.27;;;12.60;99.90;;;;;;5107734;27;20243;-62
2022/05/07 02:08:38;;;;;;;9.80;8.80;;;12.60;99.90;;;;;;5105112;27;21093;-62
2022/05/07 02:11:13;;;;;;;9.60;8.63;;;12.60;99.90;;;;;;5106034;27;20693;-62
2022/05/07 02:13:42;;;;;;;10.43;9.10;;;12.60;99.90;;;;;;5107833;27;20227;-62
2022/05/07 02:16:10;;;;;;;9.70;8.47;;;12.60;99.90;;;;;;5106812;27;20642;-62
2022/05/07 02:18:39;;;;;;;10.33;9.27;;;12.50;99.90;;;;;;5106652;27;20285;-62
2022/05/07 02:21:08;;;;;;;11.70;9.27;;;12.50;99.90;;;;;;5122092;27;20343;-63
2022/05/07 02:23:37;;;;;;;10.60;9.50;;;12.50;99.90;;;;;;5120924;27;21142;-63
2022/05/07 02:26:06;;;;;;;11.73;9.93;;;12.40;99.90;;;;;;5121888;27;20244;-62
2022/05/07 02:28:34;;;;;;;11.20;10.00;;;12.40;99.90;;;;;;5107075;27;20240;-62
2022/05/07 02:31:05;;;;;;;10.77;9.60;;;12.40;99.90;;;;;;5090046;28;20578;-62
2022/05/07 02:33:33;;;;;;;10.10;9.00;;;12.40;99.90;;;;;;5094341;28;20792;-62
2022/05/07 02:36:02;;;;;;;10.63;9.20;;;12.30;99.90;;;;;;5094903;28;20315;-62
2022/05/07 02:38:30;;;;;;;9.77;8.77;;;12.30;99.90;;;;;;5090654;28;20721;-63
2022/05/07 02:43:46;;;;;;;11.90;10.60;;;12.20;99.90;;;;;;5095389;28;20609;-63
2022/05/07 02:46:17;;;;;;;11.27;10.17;;;12.20;99.90;;;;;;5093265;28;20297;-62
2022/05/07 02:48:46;;;;;;;11.37;10.03;;;12.20;99.90;;;;;;5116367;27;20331;-62
2022/05/07 02:51:18;;;;;;;11.50;10.30;;;12.20;99.90;;;;;;5094599;28;20254;-62
2022/05/07 02:53:46;;;;;;;11.83;10.07;;;12.20;99.90;;;;;;5094122;28;20269;-62
2022/05/07 02:56:15;;;;;;;11.57;10.37;;;12.10;99.90;;;;;;5093877;28;20623;-62
2022/05/07 02:58:46;;;;;;;10.20;9.23;;;12.10;99.90;;;;;;5101469;27;20607;-62
2022/05/07 03:01:14;;;;;;;11.10;9.97;;;12.10;99.90;;;;;;5104479;27;20607;-62
2022/05/07 03:03:42;;;;;;;10.67;9.57;;;12.10;99.90;;;;;;5120664;27;20347;-62
2022/05/07 03:06:11;;;;;;;11.40;9.07;;;12.00;99.90;;;;;;5102991;27;20236;-61
2022/05/07 03:08:39;;;;;;;11.07;9.97;;;12.00;99.90;;;;;;5121845;27;20242;-63
2022/05/07 03:11:07;;;;;;;11.90;9.80;;;12.00;99.90;;;;;;5101833;28;20835;-62
2022/05/07 03:13:37;;;;;;;11.73;9.70;;;12.00;99.90;;;;;;5090216;28;20252;-62
2022/05/07 03:16:07;;;;;;;10.43;9.43;;;12.00;99.90;;;;;;5087138;28;20916;-63
2022/05/07 03:18:36;;;;;;;11.80;10.60;;;12.00;99.90;;;;;;5077175;28;20598;-62
2022/05/07 03:21:04;;;;;;;11.30;10.27;;;11.90;99.90;;;;;;5094423;28;20237;-62
2022/05/07 03:23:32;;;;;;;10.93;9.93;;;11.90;99.90;;;;;;5091519;28;20606;-61
2022/05/07 03:26:08;;;;;;;10.83;9.73;;;11.90;99.90;;;;;;5094224;28;20243;-62
2022/05/07 03:28:37;;;;;;;12.27;11.00;;;11.90;99.90;;;;;;5094728;28;20247;-62
2022/05/07 03:31:05;;;;;;;11.17;10.07;;;11.90;99.90;;;;;;5096478;28;20529;-63
2022/05/07 03:33:35;;;;;;;10.60;9.33;;;11.80;99.90;;;;;;5092701;28;20263;-62
2022/05/07 03:36:03;;;;;;;11.60;10.50;;;11.80;99.90;;;;;;5095686;28;20735;-62
2022/05/07 03:38:31;;;;;;;12.33;11.13;;;11.80;99.90;;;;;;5097786;28;20282;-63
2022/05/07 03:41:08;;;;;;;12.07;10.87;;;11.80;99.90;;;;;;5093928;28;20244;-63
2022/05/07 03:43:40;;;;;;;11.23;10.13;;;11.80;99.90;;;;;;5091291;28;20780;-63
2022/05/07 03:46:09;;;;;;;12.33;11.03;;;11.80;99.90;;;;;;5092902;28;20249;-63
2022/05/07 03:48:45;;;;;;;15.87;13.03;;;11.80;99.90;;;;;;5094741;28;20248;-63
2022/05/07 03:51:14;;;;;;;20.33;15.53;;;11.70;99.90;;;;;;5097269;28;20240;-62
2022/05/07 03:53:41;;;;;;;21.20;17.20;;;11.80;99.90;;;;;;5096444;28;20228;-62
2022/05/07 03:56:15;;;;;;;25.80;19.50;;;11.70;99.90;;;;;;5096702;28;20233;-61
2022/05/07 03:58:44;;;;;;;23.57;19.70;;;11.80;99.90;;;;;;5117170;28;20237;-62
2022/05/07 04:01:19;;;;;;;26.43;20.43;;;11.80;99.90;;;;;;5083328;28;20755;-61
2022/05/07 04:03:48;;;;;;;23.63;19.27;;;11.80;99.90;;;;;;5091639;28;20246;-63
2022/05/07 04:06:17;;;;;;;23.77;19.37;;;11.80;99.90;;;;;;5090778;28;20247;-63
2022/05/07 04:08:46;;;;;;;19.43;16.97;;;11.90;99.90;;;;;;5092588;28;20294;-63
2022/05/07 04:11:15;;;;;;;16.53;14.80;;;11.90;99.90;;;;;;5093706;28;20815;-63
2022/05/07 04:13:45;;;;;;;14.80;13.17;;;11.90;99.90;;;;;;5091341;28;20647;-61
2022/05/07 04:16:13;;;;;;;14.27;12.77;;;12.00;99.90;;;;;;5095200;28;20228;-62
2022/05/07 04:18:55;;;;;;;14.13;12.73;;;12.00;99.90;;;;;;5095715;28;20565;-63
2022/05/07 04:21:24;;;;;;;13.00;11.73;;;12.00;99.90;;;;;;5087945;27;20238;-62
2022/05/07 04:23:55;;;;;;;13.20;11.67;;;12.10;99.90;;;;;;5092338;28;20318;-62
2022/05/07 04:26:23;;;;;;;12.20;10.90;;;12.10;99.90;;;;;;5090296;28;20241;-62
2022/05/07 04:28:53;;;;;;;12.10;10.80;;;12.20;99.90;;;;;;5087924;27;20270;-62
2022/05/07 04:31:23;;;;;;;12.50;11.13;;;12.20;99.90;;;;;;5098464;28;20234;-61
2022/05/07 04:33:59;;;;;;;11.73;10.60;;;12.20;99.90;;;;;;5100538;28;20232;-63
2022/05/07 04:36:30;;;;;;;11.43;10.33;;;12.20;99.90;;;;;;5092257;28;20328;-61
2022/05/07 04:39:04;;;;;;;12.67;11.00;;;12.20;99.90;;;;;;5098098;28;20726;-62
2022/05/07 04:41:38;;;;;;;11.03;10.00;;;12.20;99.90;;;;;;5098099;27;20662;-62
2022/05/07 04:44:08;;;;;;;10.60;9.57;;;12.30;99.90;;;;;;5097708;28;20228;-63
2022/05/07 04:46:36;;;;;;;10.93;9.93;;;12.30;99.90;;;;;;5096096;28;20247;-62
2022/05/07 04:49:09;;;;;;;11.03;9.97;;;12.30;99.90;;;;;;5103761;28;20327;-63
2022/05/07 04:51:37;;;;;;;11.70;9.90;;;12.30;99.90;;;;;;5105817;28;20233;-62
2022/05/07 04:54:15;;;;;;;12.00;10.67;;;12.40;99.90;;;;;;5102635;27;20323;-62
2022/05/07 04:56:44;;;;;;;11.90;10.03;;;12.50;99.90;;;;;;5122786;27;20271;-63
2022/05/07 04:59:15;;;;;;;10.23;8.97;;;12.50;99.90;;;;;;5105515;27;21292;-62
2022/05/07 05:01:56;;;;;;;11.00;9.93;;;12.60;99.90;;;;;;5110734;27;20236;-62
2022/05/07 05:04:25;;;;;;;10.57;9.47;;;12.70;99.90;;;;;;5124699;27;20276;-62
2022/05/07 05:06:54;;;;;;;11.50;10.30;;;12.70;99.90;;;;;;5125492;27;20240;-62
2022/05/07 05:09:30;;;;;;;12.07;10.90;;;12.70;99.90;;;;;;5110177;27;20235;-63
2022/05/07 05:12:07;;;;;;;11.70;10.37;;;12.80;99.90;;;;;;5114102;27;20257;-62
2022/05/07 05:17:41;;;;;;;13.07;11.67;;;13.00;99.90;;;;;;5112119;27;20231;-63
2022/05/07 05:20:10;;;;;;;14.10;11.13;;;13.00;99.90;;;;;;5125551;27;20326;-63
2022/05/07 05:22:47;;;;;;;16.83;11.63;;;13.00;99.90;;;;;;5110518;27;20231;-62
2022/05/07 05:25:19;;;;;;;13.27;11.70;;;13.10;99.90;;;;;;5108210;27;20512;-62
2022/05/07 05:27:49;;;;;;;14.27;12.40;;;13.10;99.90;;;;;;5105613;27;20622;-63
2022/05/07 05:30:21;;;;;;;14.43;12.87;;;13.20;99.90;;;;;;5106996;27;20236;-62
2022/05/07 05:32:54;;;;;;;17.90;13.90;;;13.30;99.90;;;;;;5121338;27;20980;-62
2022/05/07 05:35:22;;;;;;;15.87;13.80;;;13.30;99.90;;;;;;5108050;27;20224;-62
2022/05/07 05:37:54;;;;;;;16.00;14.30;;;13.40;99.90;;;;;;5106228;27;20228;-62
2022/05/07 05:40:23;;;;;;;21.83;15.57;;;13.50;99.90;;;;;;5106806;27;20259;-62
2022/05/07 05:42:55;;;;;;;17.83;15.27;;;13.70;99.90;;;;;;5100400;27;20232;-62
2022/05/07 05:45:24;;;;;;;20.93;15.57;;;13.80;99.90;;;;;;5099141;27;20276;-62
2022/05/07 05:47:53;;;;;;;20.90;17.27;;;14.00;99.90;;;;;;5099193;27;20244;-63
2022/05/07 05:50:22;;;;;;;21.00;17.53;;;14.20;99.90;;;;;;5100339;27;20237;-63
2022/05/07 05:52:50;;;;;;;22.83;18.37;;;14.30;99.90;;;;;;5096931;27;21180;-62
2022/05/07 05:55:18;;;;;;;24.00;18.37;;;14.50;99.90;;;;;;5098665;27;20312;-62
2022/05/07 05:57:50;;;;;;;25.37;19.67;;;14.50;99.90;;;;;;5099674;27;20531;-62
2022/05/07 06:00:20;;;;;;;25.00;20.83;;;14.70;99.90;;;;;;5100348;27;20321;-62
2022/05/07 06:02:51;;;;;;;22.07;18.37;;;14.80;99.90;;;;;;5096175;27;20349;-62
2022/05/07 06:05:24;;;;;;;22.87;20.37;;;15.00;99.90;;;;;;5099098;27;20256;-63
2022/05/07 06:07:54;;;;;;;27.33;20.73;;;15.20;99.90;;;;;;5101133;27;20244;-63
2022/05/07 06:10:31;;;;;;;26.80;19.63;;;15.30;99.90;;;;;;5100356;27;20243;-63
2022/05/07 06:12:59;;;;;;;24.70;18.90;;;15.40;99.90;;;;;;5097430;27;20240;-63
2022/05/07 06:15:28;;;;;;;20.40;18.17;;;15.30;99.90;;;;;;5101787;27;20233;-63
2022/05/07 06:17:57;;;;;;;23.67;18.53;;;15.30;99.90;;;;;;5102435;27;20948;-62
2022/05/07 06:20:26;;;;;;;21.67;17.63;;;15.30;99.90;;;;;;5101745;27;20297;-63
2022/05/07 06:22:59;;;;;;;23.40;18.27;;;15.30;99.90;;;;;;5099591;27;20240;-63
2022/05/07 06:28:22;;;;;;;22.03;17.97;;;15.20;99.90;;;;;;5118436;27;21134;-62
2022/05/07 06:30:51;;;;;;;23.50;18.10;;;15.20;99.90;;;;;;5102244;27;20324;-62
2022/05/07 06:33:21;;;;;;;21.83;17.53;;;15.20;99.90;;;;;;5099288;27;20692;-62
2022/05/07 06:35:53;;;;;;;20.83;16.90;;;15.20;99.90;;;;;;5101311;27;20244;-63
2022/05/07 06:38:27;;;;;;;18.47;15.47;;;15.20;99.90;;;;;;5099487;27;20865;-63
2022/05/07 06:40:56;;;;;;;17.17;14.13;;;15.20;99.90;;;;;;5101338;27;20295;-63
2022/05/07 06:43:25;;;;;;;15.60;13.70;;;15.30;99.90;;;;;;5113652;27;20800;-62
2022/05/07 06:46:13;;;;;;;16.37;12.77;;;15.30;99.90;;;;;;5097439;27;20739;-62
2022/05/07 06:48:52;;;;;;;16.97;12.63;;;15.30;99.90;;;;;;5101369;27;20260;-62
2022/05/07 06:51:28;;;;;;;17.23;13.37;;;15.30;99.90;;;;;;5099331;27;20248;-63
2022/05/07 06:53:56;;;;;;;15.93;13.37;;;15.30;99.90;;;;;;5115500;27;20245;-63
2022/05/07 06:56:24;;;;;;;17.97;14.23;;;15.20;99.90;;;;;;5116515;27;20232;-62
2022/05/07 06:58:53;;;;;;;18.13;13.90;;;15.20;99.90;;;;;;5116912;27;20243;-63
2022/05/07 07:01:21;;;;;;;15.83;12.97;;;15.30;99.90;;;;;;5115289;27;20251;-63
2022/05/07 07:03:49;;;;;;;15.30;12.40;;;15.30;99.90;;;;;;5114511;27;20293;-62
2022/05/07 07:06:21;;;;;;;20.70;14.20;;;15.30;99.90;;;;;;5117578;27;20305;-63
2022/05/07 07:08:49;;;;;;;17.53;13.80;;;15.40;99.90;;;;;;5117230;27;20299;-62
2022/05/07 07:11:17;;;;;;;16.20;13.10;;;15.40;99.90;;;;;;5115269;27;20229;-63
2022/05/07 07:13:46;;;;;;;17.83;14.77;;;15.40;99.90;;;;;;5114074;27;20645;-65
2022/05/07 07:16:17;;;;;;;19.43;14.27;;;15.50;99.90;;;;;;5114234;27;20252;-64
2022/05/07 07:19:24;;;;;;;19.37;14.37;;;15.50;99.90;;;;;;5114031;27;20240;-63
2022/05/07 07:22:29;;;;;;;16.30;13.67;;;15.50;99.90;;;;;;5111501;27;20699;-63
2022/05/07 07:24:59;;;;;;;19.00;13.70;;;15.60;99.90;;;;;;5097188;28;20236;-64
2022/05/07 07:27:27;;;;;;;15.97;13.83;;;15.80;99.90;;;;;;5115220;27;20241;-64
2022/05/07 07:29:55;;;;;;;16.23;13.23;;;15.90;99.90;;;;;;5115882;27;20603;-64
2022/05/07 07:33:01;;;;;;;15.20;11.67;;;15.90;99.90;;;;;;5111854;27;20274;-64
2022/05/07 07:36:07;;;;;;;15.10;12.43;;;16.10;99.90;;;;;;5113479;27;20642;-66
2022/05/07 07:38:35;;;;;;;14.57;11.27;;;16.30;99.90;;;;;;5113258;27;20225;-64
2022/05/07 07:41:41;;;;;;;15.90;12.27;;;16.50;99.90;;;;;;5115899;27;20652;-64
2022/05/07 07:47:56;;;;;;;13.83;11.73;;;16.50;99.90;;;;;;5114323;28;20331;-64
2022/05/07 07:50:24;;;;;;;16.00;11.70;;;16.40;99.90;;;;;;5117677;27;20233;-63
2022/05/07 07:53:29;;;;;;;15.50;12.43;;;16.40;99.90;;;;;;5120903;27;20232;-63
2022/05/07 07:56:35;;;;;;;17.23;13.93;;;16.40;99.90;;;;;;5124950;27;20237;-63
2022/05/07 07:59:03;;;;;;;20.17;13.17;;;16.40;99.90;;;;;;5124472;27;20233;-64
2022/05/07 08:01:31;;;;;;;16.43;14.57;;;16.50;99.90;;;;;;5125229;27;20240;-64
2022/05/07 08:04:01;;;;;;;18.50;14.37;;;16.60;99.90;;;;;;5124356;27;20240;-63
2022/05/07 08:06:30;;;;;;;17.80;14.30;;;16.80;99.90;;;;;;5124765;27;20245;-64
2022/05/07 08:11:46;;;;;;;16.70;14.60;;;17.10;99.90;;;;;;5124417;27;20634;-63
2022/05/07 08:14:15;;;;;;;18.03;15.37;;;17.40;99.90;;;;;;5122673;27;20589;-63
2022/05/07 08:16:43;;;;;;;16.63;13.67;;;17.80;99.90;;;;;;5124737;27;20229;-63
2022/05/07 08:19:13;;;;;;;21.03;15.43;;;17.90;99.90;;;;;;5124002;27;20236;-63
2022/05/07 08:21:41;;;;;;;19.03;14.13;;;18.20;99.90;;;;;;5124538;27;20236;-64
2022/05/07 08:24:09;;;;;;;16.13;14.03;;;18.70;99.90;;;;;;5123255;27;20272;-63
2022/05/07 08:26:37;;;;;;;17.20;14.43;;;19.30;99.90;;;;;;5123361;27;20280;-63
2022/05/07 08:29:06;;;;;;;18.63;13.33;;;19.70;99.90;;;;;;5122690;27;20247;-63
2022/05/07 08:31:34;;;;;;;12.80;10.93;;;20.20;99.90;;;;;;5124856;27;20299;-63
2022/05/07 08:34:02;;;;;;;14.10;11.20;;;20.10;99.90;;;;;;5123748;27;20303;-64
2022/05/07 08:36:31;;;;;;;14.57;11.93;;;19.30;99.90;;;;;;5124431;27;20682;-64
2022/05/07 08:38:59;;;;;;;12.40;9.93;;;19.10;99.90;;;;;;5124370;27;20249;-64
2022/05/07 08:41:28;;;;;;;14.20;10.93;;;19.20;99.90;;;;;;5123821;27;20248;-64
2022/05/07 08:43:56;;;;;;;12.63;9.73;;;19.60;99.90;;;;;;5122258;27;20251;-64
2022/05/07 08:46:24;;;;;;;11.50;9.37;;;19.90;99.90;;;;;;5123423;27;20235;-64
2022/05/07 08:48:53;;;;;;;12.30;8.20;;;20.40;99.90;;;;;;5124721;27;20231;-64
2022/05/07 08:51:21;;;;;;;9.87;8.10;;;20.60;99.90;;;;;;5123300;27;20238;-64
2022/05/07 08:53:53;;;;;;;10.37;9.23;;;20.50;99.90;;;;;;5122063;27;20259;-64
2022/05/07 08:56:23;;;;;;;10.03;7.90;;;20.30;99.90;;;;;;5123085;27;20236;-64
2022/05/07 08:58:52;;;;;;;24.50;10.07;;;20.20;99.90;;;;;;5123579;27;20884;-64
2022/05/07 09:01:21;;;;;;;11.37;8.63;;;20.10;99.90;;;;;;5122146;27;20795;-64
2022/05/07 09:03:50;;;;;;;15.17;7.90;;;20.00;99.90;;;;;;5122024;27;20251;-64
2022/05/07 09:06:21;;;;;;;18.20;8.10;;;20.10;99.90;;;;;;5123151;27;20722;-64
2022/05/07 09:08:52;;;;;;;15.83;8.87;;;20.00;99.90;;;;;;5123011;27;20650;-64
2022/05/07 09:11:21;;;;;;;14.27;9.40;;;20.10;99.90;;;;;;5120453;27;20238;-64
2022/05/07 09:14:01;;;;;;;14.90;9.50;;;19.90;99.90;;;;;;5121101;27;20244;-65
2022/05/07 09:16:39;;;;;;;11.63;10.07;;;19.60;99.90;;;;;;5121868;27;20236;-65
2022/05/07 09:19:20;;;;;;;14.47;11.03;;;19.30;99.90;;;;;;5122777;27;20248;-65
2022/05/07 09:21:48;;;;;;;15.40;10.97;;;19.00;99.90;;;;;;5122774;27;20235;-66
2022/05/07 09:24:18;;;;;;;15.77;11.43;;;18.90;99.90;;;;;;5122296;27;20244;-65
2022/05/07 09:26:47;;;;;;;12.67;9.83;;;19.60;99.90;;;;;;5122168;27;20564;-66
2022/05/07 09:29:16;;;;;;;12.77;10.50;;;20.30;99.90;;;;;;5123308;27;20237;-66
2022/05/07 09:31:46;;;;;;;13.97;10.97;;;20.70;99.90;;;;;;5123667;27;20247;-66
2022/05/07 09:37:01;;;;;;;11.80;10.47;;;20.50;99.90;;;;;;5121825;27;20237;-66
2022/05/07 09:39:35;;;;;;;14.37;11.03;;;20.10;99.90;;;;;;5123161;27;20244;-66
2022/05/07 09:42:04;;;;;;;12.67;10.57;;;19.70;99.90;;;;;;5122777;27;20244;-66
2022/05/07 09:44:32;;;;;;;17.00;11.77;;;19.90;99.90;;;;;;5122897;27;21031;-66
2022/05/07 09:47:01;;;;;;;13.50;10.60;;;20.50;99.90;;;;;;5123184;27;20244;-66
2022/05/07 09:49:33;;;;;;;13.57;10.50;;;20.90;99.90;;;;;;5123191;27;20236;-66
2022/05/07 09:52:04;;;;;;;13.73;10.70;;;21.00;99.90;;;;;;5122331;27;21248;-66
2022/05/07 10:00:11;;;;;;;12.87;9.50;;;21.40;99.90;;;;;;5115114;27;20889;-66
2022/05/07 10:03:06;;;;;;;12.00;9.93;;;21.90;99.90;;;;;;5122054;27;20241;-66
2022/05/07 10:05:55;;;;;;;12.33;9.87;;;21.90;99.90;;;;;;5119526;27;20241;-66
2022/05/07 10:08:34;;;;;;;12.07;8.63;;;21.50;99.90;;;;;;5122575;27;20636;-66
2022/05/07 10:11:08;;;;;;;10.50;8.47;;;21.70;99.90;;;;;;5122289;27;20322;-66
2022/05/07 10:13:36;;;;;;;12.37;8.90;;;21.70;99.90;;;;;;5121519;27;20322;-66
2022/05/07 10:16:05;;;;;;;13.20;8.77;;;22.10;99.90;;;;;;5121421;27;20251;-66
2022/05/07 10:18:35;;;;;;;11.07;8.77;;;22.90;99.90;;;;;;5122018;27;20255;-66
2022/05/07 10:21:13;;;;;;;11.70;9.30;;;22.70;99.90;;;;;;5122283;27;20244;-66
2022/05/07 10:23:53;;;;;;;9.43;7.43;;;22.00;99.90;;;;;;5120865;27;20239;-66
2022/05/07 10:26:24;;;;;;;10.37;8.10;;;22.00;99.90;;;;;;5122276;27;20261;-66
2022/05/07 10:28:53;;;;;;;11.53;8.87;;;21.80;99.90;;;;;;5121855;27;20730;-66
2022/05/07 10:31:22;;;;;;;10.17;8.20;;;21.40;99.90;;;;;;5121257;27;20568;-66
2022/05/07 10:33:51;;;;;;;14.47;8.30;;;21.10;99.90;;;;;;5121155;27;20610;-66
2022/05/07 10:36:20;;;;;;;11.27;8.13;;;21.20;99.90;;;;;;5121273;27;21040;-66
2022/05/07 10:38:49;;;;;;;9.40;6.80;;;21.40;99.90;;;;;;5121388;27;20301;-66
2022/05/07 10:41:24;;;;;;;7.73;5.90;;;21.90;99.90;;;;;;5119288;27;21266;-66
2022/05/07 10:44:05;;;;;;;10.80;6.93;;;22.70;99.90;;;;;;5120358;27;20322;-66
2022/05/07 10:46:43;;;;;;;9.60;7.80;;;23.20;99.90;;;;;;5120722;27;22640;-66
2022/05/07 10:49:11;;;;;;;10.93;8.07;;;23.20;99.90;;;;;;5119955;27;20630;-66
2022/05/07 10:51:50;;;;;;;10.33;8.70;;;23.00;99.90;;;;;;5121237;27;20229;-66
2022/05/07 10:54:21;;;;;;;8.70;7.70;;;22.50;99.90;;;;;;5119696;27;20290;-66
2022/05/07 10:56:52;;;;;;;11.53;8.00;;;22.00;99.90;;;;;;5122905;27;20264;-66
2022/05/07 10:59:22;;;;;;;10.07;8.40;;;21.40;99.90;;;;;;5120813;27;20240;-66
2022/05/07 11:01:51;;;;;;;9.33;7.93;;;20.90;99.90;;;;;;5122420;27;20695;-66
2022/05/07 11:04:22;;;;;;;9.40;6.90;;;20.40;99.90;;;;;;5120364;27;20240;-66
2022/05/07 11:06:52;;;;;;;7.63;6.33;;;20.30;99.90;;;;;;5120977;27;20726;-66
2022/05/07 11:09:21;;;;;;;7.70;6.10;;;20.10;99.90;;;;;;5119843;27;20228;-66
2022/05/07 11:11:54;;;;;;;7.50;6.00;;;19.90;99.90;;;;;;5118762;27;20237;-66
2022/05/07 11:14:24;;;;;;;9.03;6.30;;;19.70;99.90;;;;;;5119575;27;20241;-66
2022/05/07 11:16:52;;;;;;;8.53;6.23;;;19.50;99.90;;;;;;5120648;27;20318;-66
2022/05/07 11:19:26;;;;;;;7.23;6.07;;;19.40;99.90;;;;;;5118978;27;20293;-66
2022/05/07 11:21:55;;;;;;;7.53;5.70;;;19.30;99.90;;;;;;5119691;28;20263;-66
2022/05/07 11:24:25;;;;;;;10.27;6.20;;;19.20;99.90;;;;;;5120275;27;20229;-66
2022/05/07 11:26:56;;;;;;;6.67;5.50;;;19.20;99.90;;;;;;5120820;27;20266;-66
2022/05/07 11:29:25;;;;;;;6.80;5.97;;;19.40;99.90;;;;;;5124091;27;20318;-66
2022/05/07 11:31:57;;;;;;;7.63;6.07;;;19.40;99.90;;;;;;5124744;27;20243;-66
2022/05/07 11:34:31;;;;;;;7.33;6.07;;;19.50;99.90;;;;;;5124242;27;20225;-66
2022/05/07 11:37:16;;;;;;;7.30;6.40;;;19.90;99.90;;;;;;5125893;27;20707;-66
2022/05/07 11:39:50;;;;;;;7.53;6.00;;;20.10;99.90;;;;;;5125279;27;20232;-66
2022/05/07 11:42:30;;;;;;;8.13;6.27;;;20.20;99.90;;;;;;5124532;27;20244;-66
2022/05/07 11:45:29;;;;;;;7.33;5.53;;;20.40;99.90;;;;;;5123930;27;20557;-66
2022/05/07 11:48:03;;;;;;;9.13;6.90;;;20.90;99.90;;;;;;5123303;27;20585;-66
2022/05/07 11:50:33;;;;;;;7.70;6.07;;;21.20;99.90;;;;;;5123013;27;20260;-66
2022/05/07 11:53:11;;;;;;;8.47;6.03;;;21.20;99.90;;;;;;5123588;27;20232;-66
2022/05/07 11:55:39;;;;;;;9.53;6.90;;;20.90;99.90;;;;;;5123751;27;20231;-66
2022/05/07 11:58:17;;;;;;;13.20;6.80;;;20.50;99.90;;;;;;5122223;27;20718;-66
2022/05/07 12:00:47;;;;;;;9.13;7.10;;;20.20;99.90;;;;;;5124197;27;20573;-66
2022/05/07 12:03:18;;;;;;;9.60;6.10;;;20.10;99.90;;;;;;5122992;27;20239;-66
2022/05/07 12:05:48;;;;;;;7.90;6.50;;;20.00;99.90;;;;;;5121672;27;20256;-66
2022/05/07 12:08:18;;;;;;;8.23;7.10;;;20.00;99.90;;;;;;5123232;27;20264;-66
2022/05/07 12:10:47;;;;;;;10.10;7.10;;;19.90;99.90;;;;;;5124019;27;20664;-66
2022/05/07 12:13:18;;;;;;;7.70;5.90;;;19.80;99.90;;;;;;5122183;27;20700;-66
2022/05/07 12:18:35;;;;;;;11.33;5.77;;;19.90;99.90;;;;;;5124064;27;20252;-66
2022/05/07 12:21:04;;;;;;;8.30;5.90;;;20.10;99.90;;;;;;5124525;27;20241;-66
2022/05/07 12:31:55;;;;;;;7.97;6.20;;;19.90;99.90;;;;;;5122240;27;20233;-66
2022/05/07 12:34:30;;;;;;;24.23;6.43;;;19.80;99.90;;;;;;5122252;27;21065;-66
2022/05/07 12:36:58;;;;;;;9.80;5.23;;;19.70;99.90;;;;;;5122774;27;20244;-66
2022/05/07 12:39:26;;;;;;;7.20;4.80;;;19.50;99.90;;;;;;5122447;27;20248;-66
2022/05/07 12:41:55;;;;;;;7.63;4.63;;;19.30;99.90;;;;;;5123771;27;20236;-66
2022/05/07 12:44:25;;;;;;;6.20;4.10;;;19.30;99.90;;;;;;5122503;27;20235;-66
2022/05/07 12:46:53;;;;;;;6.07;3.90;;;19.10;99.90;;;;;;5122573;27;20236;-66
2022/05/07 12:49:21;;;;;;;6.17;4.10;;;19.00;99.90;;;;;;5122441;27;20244;-66
2022/05/07 12:51:51;;;;;;;5.53;4.20;;;18.90;99.90;;;;;;5123608;27;20813;-66
2022/05/07 12:54:19;;;;;;;7.10;4.53;;;18.80;99.90;;;;;;5122069;27;20719;-66
2022/05/07 12:56:48;;;;;;;5.73;4.60;;;18.70;99.90;;;;;;5123131;27;20248;-66
2022/05/07 12:59:16;;;;;;;7.03;5.47;;;18.60;99.90;;;;;;5122883;27;20776;-66
2022/05/07 13:01:45;;;;;;;8.20;5.47;;;18.50;99.90;;;;;;5123601;27;20264;-66
2022/05/07 13:04:14;;;;;;;5.83;5.20;;;18.30;99.90;;;;;;5121370;27;20594;-66
2022/05/07 13:06:42;;;;;;;7.13;4.83;;;18.20;99.90;;;;;;5121609;27;20243;-66
2022/05/07 13:09:11;;;;;;;6.03;5.23;;;18.10;99.90;;;;;;5121778;27;20326;-66
2022/05/07 13:11:39;;;;;;;7.97;6.17;;;18.00;99.90;;;;;;5107509;27;20768;-66
2022/05/07 13:14:07;;;;;;;7.93;5.37;;;17.90;99.90;;;;;;5122794;27;20235;-66
2022/05/07 13:16:36;;;;;;;6.73;5.03;;;17.80;99.90;;;;;;5120836;27;20316;-66
2022/05/07 13:19:05;;;;;;;7.27;4.90;;;17.70;99.90;;;;;;5123065;27;20289;-66
2022/05/07 13:21:33;;;;;;;6.73;4.97;;;17.80;99.90;;;;;;5123408;27;20236;-66
2022/05/07 13:24:02;;;;;;;11.67;5.47;;;17.80;99.90;;;;;;5121079;27;20235;-66
2022/05/07 13:26:30;;;;;;;6.87;5.40;;;17.80;99.90;;;;;;5123600;27;20231;-66
2022/05/07 13:29:17;;;;;;;6.60;5.80;;;17.70;99.90;;;;;;5123507;27;20249;-66
2022/05/07 13:31:48;;;;;;;6.73;5.70;;;17.80;99.90;;;;;;5124325;27;20247;-66
2022/05/07 13:34:17;;;;;;;9.33;4.93;;;17.60;99.90;;;;;;5121997;27;20280;-66